Time;durP1;ratioP1;P1;durP2;ratioP2;P2;SDS_P1;SDS_P2;PMS_P1;PMS_P2;Temp;Humidity;BMP_temperature;BMP_pressure;BME280_temperature;BME280_humidity;BME280_pressure;Samples;Min_cycle;Max_cycle;Signal;HPM_P1;HPM_P2
2023/03/08 00:01:16;;;;;;;0.80;0.80;;;5.20;59.70;;;4.87;44.87;93347.25;5115129;28;20672;-18
2023/03/08 00:03:44;;;;;;;0.70;0.70;;;5.20;59.90;;;4.83;45.06;93346.00;5098459;28;20233;-18
2023/03/08 00:06:14;;;;;;;0.70;0.70;;;5.10;59.80;;;4.84;44.98;93357.22;5115451;28;20190;-18
2023/03/08 00:08:41;;;;;;;0.70;0.70;;;5.10;59.90;;;4.79;45.16;93347.41;5115546;28;20217;-18
2023/03/08 00:11:11;;;;;;;0.70;0.70;;;5.10;60.00;;;4.74;45.09;93344.59;5115199;28;20428;-18
2023/03/08 00:13:38;;;;;;;0.80;0.80;;;5.10;60.10;;;4.72;45.17;93342.16;5131498;27;20221;-18
2023/03/08 00:16:09;;;;;;;0.80;0.80;;;5.00;60.00;;;4.73;45.41;93361.16;5114232;28;20205;-18
2023/03/08 00:18:36;;;;;;;0.80;0.80;;;5.00;60.10;;;4.71;45.49;93355.34;5115447;28;20178;-18
2023/03/08 00:21:08;;;;;;;0.80;0.80;;;5.00;60.00;;;4.69;45.52;93360.75;5116173;28;20194;-18
2023/03/08 00:23:35;;;;;;;0.80;0.80;;;5.00;60.30;;;4.68;45.92;93366.94;5101583;28;20244;-18
2023/03/08 00:26:03;;;;;;;0.70;0.70;;;5.00;60.30;;;4.67;45.51;93375.72;5119105;28;20602;-18
2023/03/08 00:28:31;;;;;;;0.80;0.80;;;5.00;60.60;;;4.71;45.67;93373.53;5135251;27;20198;-18
2023/03/08 00:31:05;;;;;;;0.70;0.70;;;5.00;60.50;;;4.75;45.46;93367.75;5135040;27;20527;-18
2023/03/08 00:33:33;;;;;;;0.60;0.60;;;5.00;60.50;;;4.79;45.53;93371.56;5119248;27;20186;-18
2023/03/08 00:36:13;;;;;;;0.70;0.70;;;5.00;60.50;;;4.84;45.79;93378.78;5119154;27;20213;-18
2023/03/08 00:38:40;;;;;;;0.70;0.70;;;5.10;60.70;;;4.79;45.63;93370.78;5119049;28;20174;-18
2023/03/08 00:41:08;;;;;;;0.70;0.70;;;5.10;60.50;;;4.85;45.44;93361.41;5118656;28;20190;-18
2023/03/08 00:43:36;;;;;;;0.70;0.70;;;5.10;60.50;;;4.87;45.81;93380.19;5118933;28;20198;-18
2023/03/08 00:46:04;;;;;;;0.70;0.70;;;5.10;60.70;;;4.88;45.38;93380.00;5118171;28;20190;-18
2023/03/08 00:48:31;;;;;;;0.70;0.70;;;5.10;60.50;;;4.93;45.83;93372.44;5118649;28;20190;-18
2023/03/08 00:50:59;;;;;;;0.70;0.70;;;5.20;60.60;;;4.97;45.64;93385.84;5117641;28;20194;-18
2023/03/08 00:53:26;;;;;;;0.70;0.70;;;5.20;60.60;;;4.96;45.25;93371.25;5117623;28;20198;-18
2023/03/08 00:55:56;;;;;;;0.57;0.57;;;5.20;60.50;;;4.99;45.41;93375.25;5118824;28;20190;-18
2023/03/08 00:58:26;;;;;;;0.60;0.60;;;5.20;60.50;;;4.95;45.55;93370.41;5118661;28;20200;-18
2023/03/08 01:00:53;;;;;;;0.60;0.60;;;5.20;60.40;;;4.95;45.18;93378.22;5118760;28;20178;-18
2023/03/08 01:03:22;;;;;;;0.70;0.70;;;5.20;60.30;;;4.94;45.80;93370.63;5117532;28;20229;-18
2023/03/08 01:05:53;;;;;;;0.75;0.75;;;5.20;60.30;;;4.93;45.91;93379.41;5118535;27;20232;-18
2023/03/08 01:08:22;;;;;;;0.80;0.80;;;5.20;60.50;;;4.92;45.77;93378.63;5118278;28;20276;-18
2023/03/08 01:10:53;;;;;;;0.80;0.80;;;5.20;60.60;;;4.92;45.84;93388.19;5118071;28;20201;-18
2023/03/08 01:13:24;;;;;;;0.70;0.70;;;5.20;60.50;;;4.87;46.21;93386.19;5100620;28;20197;-18
2023/03/08 01:15:51;;;;;;;0.80;0.80;;;5.20;60.70;;;4.85;45.91;93384.81;5118392;28;20202;-18
2023/03/08 01:18:18;;;;;;;0.60;0.60;;;5.10;60.50;;;4.83;45.70;93384.97;5100364;28;20524;-18
2023/03/08 01:21:03;;;;;;;0.80;0.80;;;5.10;60.40;;;4.80;46.01;93383.56;5116960;28;20194;-18
2023/03/08 01:23:31;;;;;;;0.70;0.70;;;5.10;60.30;;;4.78;45.82;93380.34;5117133;28;20282;-18
2023/03/08 01:26:21;;;;;;;0.70;0.70;;;5.10;60.70;;;4.76;46.01;93384.13;5117017;28;20304;-18
2023/03/08 01:28:49;;;;;;;0.80;0.80;;;5.00;60.40;;;4.73;46.07;93400.91;5134185;27;20206;-18
2023/03/08 01:31:20;;;;;;;0.70;0.70;;;5.00;61.00;;;4.72;46.06;93407.09;5116857;28;20185;-18
2023/03/08 01:33:48;;;;;;;0.60;0.60;;;5.00;61.00;;;4.74;45.99;93409.53;5115793;28;20247;-18
2023/03/08 01:36:21;;;;;;;0.70;0.70;;;5.00;61.00;;;4.74;45.86;93397.31;5133813;27;20683;-18
2023/03/08 01:38:49;;;;;;;0.60;0.60;;;4.90;60.90;;;4.73;46.37;93381.94;5117195;28;20182;-18
2023/03/08 01:41:24;;;;;;;0.70;0.70;;;5.00;61.00;;;4.73;46.01;93402.72;5116544;28;20209;-18
2023/03/08 01:43:52;;;;;;;0.60;0.60;;;5.00;60.90;;;4.74;45.92;93405.13;5133718;27;20609;-18
2023/03/08 01:46:34;;;;;;;0.60;0.60;;;5.00;61.00;;;4.78;45.74;93395.94;5116748;28;20267;-18
2023/03/08 01:49:16;;;;;;;0.70;0.70;;;5.00;60.90;;;4.84;45.75;93390.97;5117528;28;20170;-18
2023/03/08 01:52:07;;;;;;;0.80;0.80;;;5.10;61.00;;;4.91;45.97;93386.63;5117537;28;20212;-18
2023/03/08 01:54:38;;;;;;;0.80;0.80;;;5.10;60.90;;;4.89;45.95;93386.78;5116742;28;20573;-18
2023/03/08 01:57:23;;;;;;;0.70;0.70;;;5.20;61.00;;;4.94;45.69;93386.22;5099663;28;20186;-18
2023/03/08 01:59:55;;;;;;;0.80;0.80;;;5.20;60.90;;;5.03;45.74;93392.84;5099652;28;20281;-18
2023/03/08 02:02:30;;;;;;;0.80;0.80;;;5.20;60.80;;;5.05;45.38;93393.44;5099262;28;20686;-18
2023/03/08 02:04:57;;;;;;;0.70;0.70;;;5.30;60.80;;;5.17;45.31;93400.69;5117673;27;20197;-18
2023/03/08 02:07:25;;;;;;;0.80;0.80;;;5.40;60.80;;;5.23;45.43;93397.31;5116307;28;20198;-18
2023/03/08 02:09:53;;;;;;;0.80;0.80;;;5.40;60.60;;;5.29;45.61;93401.72;5099686;28;20205;-18
2023/03/08 02:12:21;;;;;;;0.70;0.70;;;5.50;60.70;;;5.34;45.29;93398.53;5116324;28;20200;-22
2023/03/08 02:14:49;;;;;;;0.80;0.80;;;5.60;60.60;;;5.38;45.33;93394.53;5133304;27;20198;-18
2023/03/08 02:17:16;;;;;;;0.60;0.60;;;5.70;60.50;;;5.44;44.83;93399.75;5116150;28;20202;-18
2023/03/08 02:20:29;;;;;;;0.70;0.70;;;5.70;60.30;;;5.54;44.76;93401.16;5133215;27;20228;-18
2023/03/08 02:23:21;;;;;;;0.70;0.70;;;5.80;60.30;;;5.51;44.53;93401.56;5095412;28;20210;-20
2023/03/08 02:25:53;;;;;;;0.70;0.70;;;5.80;60.20;;;5.56;44.86;93394.75;5116729;28;20210;-18
2023/03/08 02:28:23;;;;;;;0.80;0.80;;;5.80;60.10;;;5.59;44.36;93393.56;5116182;28;20181;-18
2023/03/08 02:30:52;;;;;;;0.60;0.60;;;5.90;60.00;;;5.64;44.64;93388.56;5115795;28;20193;-18
2023/03/08 02:33:20;;;;;;;0.90;0.90;;;6.00;60.00;;;5.67;44.60;93388.16;5132553;27;20189;-18
2023/03/08 02:35:49;;;;;;;0.70;0.70;;;6.00;60.00;;;5.72;43.96;93396.16;5099243;28;20190;-18
2023/03/08 02:38:19;;;;;;;0.70;0.70;;;6.00;59.70;;;5.72;44.23;93388.34;5115935;28;20206;-37
2023/03/08 02:40:50;;;;;;;0.80;0.80;;;6.10;59.80;;;5.73;44.43;93378.78;5132970;27;20519;-18
2023/03/08 02:43:18;;;;;;;0.80;0.80;;;6.10;59.80;;;5.76;44.19;93388.75;5115260;28;20198;-18
2023/03/08 02:45:45;;;;;;;0.70;0.70;;;6.10;59.80;;;5.73;44.01;93387.38;5132563;27;20222;-18
2023/03/08 02:48:14;;;;;;;0.60;0.60;;;6.10;59.60;;;5.74;43.97;93378.56;5116427;28;20186;-18
2023/03/08 02:50:41;;;;;;;0.80;0.80;;;6.20;59.70;;;5.72;43.98;93382.38;5132452;27;20229;-18
2023/03/08 02:53:09;;;;;;;0.60;0.60;;;6.20;59.60;;;5.72;43.87;93384.97;5115288;28;20289;-19
2023/03/08 02:55:36;;;;;;;0.70;0.70;;;6.20;59.60;;;5.70;44.32;93392.97;5132375;27;20190;-18
2023/03/08 02:58:09;;;;;;;0.70;0.70;;;6.10;59.50;;;5.66;43.90;93383.16;5115246;28;20198;-19
2023/03/08 03:00:38;;;;;;;0.70;0.70;;;6.10;59.40;;;5.63;44.05;93392.16;5098372;28;20217;-18
2023/03/08 03:03:05;;;;;;;0.70;0.70;;;6.10;59.20;;;5.58;44.21;93394.56;5114994;28;20293;-18
2023/03/08 03:05:32;;;;;;;0.70;0.70;;;6.00;59.20;;;5.54;44.62;93401.97;5116001;27;20300;-18
2023/03/08 03:08:02;;;;;;;0.70;0.70;;;6.00;59.50;;;5.47;44.49;93405.53;5132480;27;20193;-18
2023/03/08 03:10:29;;;;;;;0.63;0.63;;;5.90;59.70;;;5.44;44.54;93404.13;5115034;28;20202;-19
2023/03/08 03:12:56;;;;;;;0.70;0.70;;;5.90;59.70;;;5.40;44.97;93408.94;5115827;28;20269;-19
2023/03/08 03:15:27;;;;;;;0.80;0.80;;;5.80;59.90;;;5.39;44.80;93415.13;5114946;27;20202;-18
2023/03/08 03:17:57;;;;;;;0.77;0.77;;;5.80;60.00;;;5.40;44.85;93414.13;5116113;28;20198;-18
2023/03/08 03:20:25;;;;;;;0.80;0.80;;;5.80;59.90;;;5.39;44.94;93432.53;5116079;28;20198;-18
2023/03/08 03:22:52;;;;;;;0.70;0.70;;;5.80;60.00;;;5.40;44.92;93423.75;5114799;28;20561;-19
2023/03/08 03:25:24;;;;;;;0.70;0.70;;;5.80;60.00;;;5.41;45.28;93431.34;5098966;28;20287;-18
2023/03/08 03:27:54;;;;;;;0.60;0.60;;;5.80;60.10;;;5.36;45.03;93436.34;5115968;28;20578;-19
2023/03/08 03:30:22;;;;;;;0.70;0.70;;;5.80;60.40;;;5.39;45.12;93442.94;5131880;27;20179;-19
2023/03/08 03:32:50;;;;;;;0.80;0.80;;;5.70;60.20;;;5.40;45.32;93440.13;5114801;28;20209;-19
2023/03/08 03:35:23;;;;;;;0.70;0.70;;;5.70;60.30;;;5.40;45.34;93447.13;5131798;27;20247;-19
2023/03/08 03:37:50;;;;;;;0.70;0.70;;;5.80;60.50;;;5.41;45.64;93441.75;5097855;28;20255;-18
2023/03/08 03:40:18;;;;;;;0.73;0.73;;;5.70;60.30;;;5.44;45.23;93448.34;5114587;28;20202;-18
2023/03/08 03:42:49;;;;;;;0.70;0.70;;;5.80;60.50;;;5.43;45.48;93457.13;5114526;28;20198;-19
2023/03/08 03:45:17;;;;;;;0.70;0.70;;;5.80;60.40;;;5.45;44.96;93448.13;5131577;27;20645;-19
2023/03/08 03:47:46;;;;;;;0.80;0.80;;;5.80;60.40;;;5.43;45.31;93454.53;5132038;27;20213;-18
2023/03/08 03:50:13;;;;;;;0.70;0.70;;;5.70;60.30;;;5.43;44.96;93457.13;5097884;28;20285;-18
2023/03/08 03:52:53;;;;;;;0.70;0.70;;;5.80;60.30;;;5.39;45.49;93454.13;5131433;28;20247;-18
2023/03/08 03:55:20;;;;;;;0.70;0.70;;;5.70;60.40;;;5.36;45.50;93462.34;5114452;28;20568;-19
2023/03/08 03:57:49;;;;;;;0.80;0.80;;;5.70;60.60;;;5.31;45.45;93459.53;5118724;28;20201;-18
2023/03/08 04:00:17;;;;;;;0.80;0.80;;;5.60;60.50;;;5.26;45.84;93460.09;5118676;28;20206;-18
2023/03/08 04:02:53;;;;;;;0.70;0.70;;;5.60;60.70;;;5.27;45.95;93455.69;5135715;27;20636;-19
2023/03/08 04:05:20;;;;;;;0.80;0.80;;;5.60;60.70;;;5.22;46.18;93463.28;5118510;28;20222;-18
2023/03/08 04:07:50;;;;;;;0.80;0.80;;;5.50;60.90;;;5.19;46.07;93458.44;5135674;27;20190;-18
2023/03/08 04:10:21;;;;;;;0.70;0.70;;;5.50;61.00;;;5.21;45.90;93469.47;5118529;28;20194;-18
2023/03/08 04:12:51;;;;;;;0.70;0.70;;;5.50;61.00;;;5.23;45.97;93464.88;5118109;28;20633;-19
2023/03/08 04:15:19;;;;;;;0.70;0.70;;;5.50;61.00;;;5.19;46.00;93461.06;5135485;27;20706;-18
2023/03/08 04:17:47;;;;;;;0.80;0.80;;;5.50;61.00;;;5.23;45.88;93463.06;5118368;28;20234;-19
2023/03/08 04:20:14;;;;;;;0.60;0.60;;;5.50;61.00;;;5.27;45.79;93469.50;5118267;28;20244;-19
2023/03/08 04:22:49;;;;;;;0.63;0.63;;;5.60;60.90;;;5.28;46.00;93462.50;5118137;28;20198;-19
2023/03/08 04:25:23;;;;;;;0.70;0.70;;;5.60;60.90;;;5.32;45.64;93468.09;5118120;28;20660;-19
2023/03/08 04:27:56;;;;;;;0.60;0.60;;;5.60;60.80;;;5.32;45.75;93465.50;5118149;28;20681;-18
2023/03/08 04:30:23;;;;;;;0.73;0.73;;;5.60;60.80;;;5.32;45.71;93475.91;5118914;28;20193;-18
2023/03/08 04:32:52;;;;;;;0.80;0.80;;;5.60;60.80;;;5.35;45.47;93468.53;5101417;28;20193;-19
2023/03/08 04:35:22;;;;;;;0.70;0.70;;;5.70;60.80;;;5.41;45.74;93477.34;5118004;28;20652;-18
2023/03/08 04:37:52;;;;;;;0.80;0.80;;;5.70;60.70;;;5.42;45.93;93473.72;5117935;28;20194;-18
2023/03/08 04:40:21;;;;;;;0.80;0.80;;;5.70;60.70;;;5.47;45.21;93468.75;5118713;28;20198;-19
2023/03/08 04:42:54;;;;;;;0.80;0.80;;;5.70;60.70;;;5.52;45.38;93473.38;5119000;28;20254;-18
2023/03/08 04:45:28;;;;;;;0.60;0.60;;;5.80;60.60;;;5.51;45.60;93471.78;5118890;27;20259;-20
2023/03/08 04:47:57;;;;;;;0.80;0.80;;;5.80;60.60;;;5.50;45.67;93480.56;5117828;28;20202;-18
2023/03/08 04:50:25;;;;;;;0.80;0.80;;;5.80;60.60;;;5.49;45.38;93469.34;5119002;28;20216;-19
2023/03/08 04:52:55;;;;;;;0.80;0.80;;;5.80;60.60;;;5.52;45.32;93462.97;5134824;27;20208;-18
2023/03/08 04:55:23;;;;;;;0.70;0.70;;;5.90;60.50;;;5.54;45.45;93468.75;5117925;28;20202;-18
2023/03/08 04:57:50;;;;;;;0.70;0.70;;;5.90;60.50;;;5.54;45.10;93463.56;5117529;28;20202;-18
2023/03/08 05:00:17;;;;;;;0.70;0.70;;;5.90;60.50;;;5.59;44.81;93469.78;5118532;28;20201;-19
2023/03/08 05:02:45;;;;;;;0.70;0.70;;;6.00;60.50;;;5.57;45.15;93460.59;5118305;28;20197;-19
2023/03/08 05:05:16;;;;;;;0.60;0.60;;;6.00;60.50;;;5.58;45.42;93462.97;5135421;27;20229;-19
2023/03/08 05:07:44;;;;;;;0.80;0.80;;;6.00;60.50;;;5.54;45.23;93460.97;5134437;27;20198;-19
2023/03/08 05:10:11;;;;;;;0.70;0.70;;;5.90;60.40;;;5.53;45.15;93460.19;5117549;27;20217;-18
2023/03/08 05:12:40;;;;;;;0.80;0.80;;;5.90;60.40;;;5.57;44.80;93461.38;5117065;28;20202;-19
2023/03/08 05:15:09;;;;;;;0.70;0.70;;;5.90;60.40;;;5.55;45.10;93463.38;5134382;27;20274;-18
2023/03/08 05:17:36;;;;;;;0.75;0.75;;;5.90;60.30;;;5.57;45.43;93466.56;5117206;28;20237;-18
2023/03/08 05:20:04;;;;;;;0.70;0.70;;;5.90;60.50;;;5.55;45.69;93463.38;5134798;27;20197;-19
2023/03/08 05:22:36;;;;;;;0.80;0.80;;;5.90;60.50;;;5.49;45.50;93460.75;5118160;28;20187;-19
2023/03/08 05:25:24;;;;;;;0.70;0.70;;;5.90;60.70;;;5.49;45.62;93466.75;5117266;28;20652;-19
2023/03/08 05:27:53;;;;;;;0.60;0.60;;;5.90;60.70;;;5.47;45.89;93463.56;5116988;27;20197;-19
2023/03/08 05:30:21;;;;;;;0.80;0.80;;;5.90;60.80;;;5.47;45.78;93454.94;5134051;27;20193;-18
2023/03/08 05:32:49;;;;;;;0.70;0.70;;;5.80;60.70;;;5.45;45.95;93462.94;5133927;27;20285;-18
2023/03/08 05:35:16;;;;;;;0.60;0.60;;;5.80;60.80;;;5.44;45.95;93466.53;5117992;27;20186;-18
2023/03/08 05:37:45;;;;;;;0.70;0.70;;;5.80;60.90;;;5.40;45.91;93463.53;5100184;28;20202;-19
2023/03/08 05:40:12;;;;;;;0.80;0.80;;;5.80;60.90;;;5.37;46.03;93478.72;5116781;27;20201;-18
2023/03/08 05:42:43;;;;;;;0.80;0.80;;;5.80;61.10;;;5.38;46.19;93488.13;5116628;28;20194;-19
2023/03/08 05:45:11;;;;;;;0.60;0.60;;;5.70;61.20;;;5.33;46.10;93474.91;5116563;28;20198;-18
2023/03/08 05:47:39;;;;;;;0.70;0.70;;;5.70;61.20;;;5.29;46.47;93474.50;5133759;27;20278;-18
2023/03/08 05:50:10;;;;;;;0.70;0.70;;;5.70;61.20;;;5.25;46.55;93475.91;5117622;28;20190;-19
2023/03/08 05:52:41;;;;;;;0.65;0.65;;;5.70;61.30;;;5.21;46.35;93477.25;5117592;28;20239;-19
2023/03/08 05:55:12;;;;;;;0.70;0.70;;;5.60;61.30;;;5.21;46.35;93490.25;5117381;28;20521;-18
2023/03/08 05:57:40;;;;;;;0.70;0.70;;;5.60;61.20;;;5.10;46.90;93479.44;5116817;27;20198;-19
2023/03/08 06:00:11;;;;;;;0.70;0.70;;;5.50;61.20;;;5.10;46.39;93496.81;5116413;27;20190;-19
2023/03/08 06:02:49;;;;;;;0.70;0.70;;;5.50;61.10;;;5.04;47.05;93495.81;5133346;27;20247;-18
2023/03/08 06:05:17;;;;;;;0.63;0.63;;;5.40;61.40;;;5.03;46.80;93499.38;5116543;28;20202;-19
2023/03/08 06:07:45;;;;;;;0.70;0.70;;;5.40;61.50;;;5.00;47.29;93497.16;5116242;27;20240;-18
2023/03/08 06:10:14;;;;;;;0.80;0.80;;;5.40;61.80;;;5.03;47.49;93491.59;5134081;27;20202;-19
2023/03/08 06:12:41;;;;;;;0.80;0.80;;;5.40;61.90;;;5.07;46.88;93492.00;5115905;28;20617;-18
2023/03/08 06:15:12;;;;;;;0.63;0.63;;;5.40;61.80;;;5.10;46.99;93489.84;5099829;28;20636;-18
2023/03/08 06:17:40;;;;;;;0.70;0.70;;;5.40;61.70;;;5.14;47.30;93495.44;5116682;28;20214;-18
2023/03/08 06:20:10;;;;;;;0.70;0.70;;;5.50;61.80;;;5.23;47.21;93504.66;5115435;28;20638;-18
2023/03/08 06:22:41;;;;;;;0.80;0.80;;;5.60;62.00;;;5.24;47.18;93506.28;5116608;28;20281;-19
2023/03/08 06:25:09;;;;;;;0.70;0.70;;;5.60;62.00;;;5.32;47.07;93509.72;5116508;28;20699;-18
2023/03/08 06:27:37;;;;;;;0.70;0.70;;;5.60;62.00;;;5.41;47.21;93498.94;5115828;28;20673;-18
2023/03/08 06:30:25;;;;;;;0.70;0.70;;;5.70;62.10;;;5.56;46.97;93498.00;5115824;28;20282;-18
2023/03/08 06:32:53;;;;;;;0.60;0.60;;;5.80;62.10;;;5.65;47.22;93501.22;5132681;27;20304;-18
2023/03/08 06:35:20;;;;;;;0.80;0.80;;;5.90;62.00;;;5.76;46.64;93485.84;5132752;27;20204;-19
2023/03/08 06:37:54;;;;;;;0.80;0.80;;;6.10;61.90;;;5.91;46.40;93495.28;5115651;28;20190;-19
2023/03/08 06:40:21;;;;;;;0.70;0.70;;;6.20;61.60;;;5.97;46.24;93489.28;5116253;28;20213;-18
2023/03/08 06:42:48;;;;;;;0.80;0.80;;;6.30;61.50;;;6.02;46.12;93491.31;5117148;28;20318;-18
2023/03/08 06:45:15;;;;;;;0.80;0.80;;;6.40;61.40;;;6.05;46.08;93494.31;5115492;28;20194;-19
2023/03/08 06:47:42;;;;;;;0.70;0.70;;;6.40;61.10;;;6.03;45.90;93485.91;5115541;28;20635;-19
2023/03/08 06:50:11;;;;;;;0.60;0.60;;;6.50;61.10;;;6.02;45.93;93483.50;5116332;27;20588;-19
2023/03/08 06:52:40;;;;;;;0.80;0.80;;;6.40;61.00;;;6.02;45.87;93486.13;5132629;27;20201;-19
2023/03/08 06:55:09;;;;;;;0.70;0.70;;;6.40;61.00;;;5.98;45.86;93479.66;5116232;28;20289;-19
2023/03/08 06:57:36;;;;;;;0.70;0.70;;;6.40;61.20;;;5.96;46.33;93476.44;5115562;28;20226;-34
2023/03/08 07:00:03;;;;;;;0.70;0.70;;;6.40;61.30;;;5.97;46.25;93476.25;5115482;28;20205;-19
2023/03/08 07:02:31;;;;;;;0.60;0.60;;;6.40;61.20;;;5.98;46.38;93483.06;5116563;28;20194;-20
2023/03/08 07:04:58;;;;;;;0.73;0.73;;;6.40;61.40;;;6.03;46.17;93488.50;5116348;28;20629;-20
2023/03/08 07:07:25;;;;;;;0.75;0.75;;;6.40;61.30;;;6.05;46.52;93483.91;5116436;28;20222;-20
2023/03/08 07:09:52;;;;;;;0.80;0.80;;;6.50;61.50;;;6.07;46.33;93476.69;5116794;28;20224;-18
2023/03/08 07:12:20;;;;;;;0.60;0.60;;;6.50;61.50;;;6.14;46.14;93476.72;5116395;28;20706;-34
2023/03/08 07:14:50;;;;;;;0.68;0.68;;;6.50;61.50;;;6.16;46.27;93474.69;5116201;28;20503;-19
2023/03/08 07:17:17;;;;;;;0.70;0.70;;;6.60;61.50;;;6.23;46.58;93472.09;5116571;28;20501;-19
2023/03/08 07:19:44;;;;;;;0.60;0.60;;;6.60;61.50;;;6.28;46.45;93474.91;5115233;28;20186;-18
2023/03/08 07:22:11;;;;;;;0.60;0.60;;;6.60;61.40;;;6.31;46.38;93471.09;5116134;28;20197;-18
2023/03/08 07:24:39;;;;;;;0.60;0.60;;;6.70;61.60;;;6.35;45.94;93472.31;5115005;28;20229;-19
2023/03/08 07:27:06;;;;;;;0.70;0.70;;;6.70;61.40;;;6.38;45.97;93471.88;5116229;28;20217;-18
2023/03/08 07:29:33;;;;;;;0.70;0.70;;;6.70;61.40;;;6.40;45.75;93460.25;5116126;28;20314;-18
2023/03/08 07:32:00;;;;;;;0.63;0.63;;;6.70;61.40;;;6.46;45.89;93461.28;5115449;28;20276;-19
2023/03/08 07:34:27;;;;;;;0.63;0.63;;;6.80;61.50;;;6.50;45.87;93456.44;5115930;28;20210;-18
2023/03/08 07:36:55;;;;;;;0.75;0.75;;;6.80;61.40;;;6.56;45.63;93466.06;5115947;28;20272;-18
2023/03/08 07:39:22;;;;;;;0.60;0.60;;;6.90;61.30;;;6.62;45.59;93461.84;5115913;28;20193;-19
2023/03/08 07:41:49;;;;;;;0.75;0.75;;;7.00;61.40;;;6.71;45.24;93484.06;5115898;28;20198;-19
2023/03/08 07:44:16;;;;;;;0.80;0.80;;;7.00;61.20;;;6.73;45.21;93466.44;5115689;28;20190;-19
2023/03/08 07:46:44;;;;;;;0.80;0.80;;;7.10;61.20;;;6.82;45.32;93472.22;5115689;28;20209;-31
2023/03/08 07:49:12;;;;;;;0.70;0.70;;;7.10;61.20;;;6.87;45.20;93460.19;5116016;28;20265;-18
2023/03/08 07:51:38;;;;;;;0.70;0.70;;;7.20;61.10;;;6.95;44.91;93460.97;5115858;28;20190;-18
2023/03/08 07:54:06;;;;;;;0.70;0.70;;;7.30;61.00;;;7.07;44.83;93463.72;5115524;28;20197;-18
2023/03/08 07:56:33;;;;;;;0.73;0.73;;;7.40;60.90;;;7.10;44.43;93455.50;5115807;28;20545;-18
2023/03/08 07:59:00;;;;;;;0.70;0.70;;;7.40;60.70;;;7.21;44.71;93460.88;5116374;28;20206;-19
2023/03/08 08:01:27;;;;;;;0.70;0.70;;;7.50;60.80;;;7.30;44.06;93444.97;5115692;28;20194;-19
2023/03/08 08:03:54;;;;;;;0.70;0.70;;;7.60;60.50;;;7.37;44.37;93440.53;5115455;28;20637;-19
2023/03/08 08:06:21;;;;;;;0.68;0.68;;;7.70;60.50;;;7.47;44.33;93438.28;5115694;28;20243;-19
2023/03/08 08:08:50;;;;;;;0.70;0.70;;;7.80;60.60;;;7.64;44.20;93454.25;5116017;28;20197;-19
2023/03/08 08:11:20;;;;;;;0.70;0.70;;;7.90;60.70;;;7.85;44.05;93452.34;5116287;28;20200;-19
2023/03/08 08:13:48;;;;;;;0.70;0.70;;;8.10;60.60;;;8.00;43.36;93452.81;5115907;28;20516;-19
2023/03/08 08:16:16;;;;;;;0.70;0.70;;;8.30;60.20;;;8.21;43.27;93457.91;5115573;28;20230;-19
2023/03/08 08:18:43;;;;;;;0.80;0.80;;;8.40;60.00;;;8.31;43.11;93464.25;5097781;28;20205;-18
2023/03/08 08:21:14;;;;;;;0.60;0.60;;;8.60;59.90;;;8.49;43.46;93468.75;5115629;28;20202;-18
2023/03/08 08:23:42;;;;;;;0.60;0.60;;;8.80;60.00;;;8.62;42.91;93470.44;5115755;28;20236;-19
2023/03/08 08:26:19;;;;;;;0.80;0.80;;;9.00;59.70;;;8.85;42.49;93473.44;5115661;28;20202;-19
2023/03/08 08:28:51;;;;;;;0.70;0.70;;;9.10;59.30;;;8.93;41.99;93471.34;5115666;28;20205;-19
2023/03/08 08:31:22;;;;;;;0.60;0.60;;;9.30;59.10;;;9.10;41.40;93470.78;5115545;28;20178;-19
2023/03/08 08:33:49;;;;;;;0.60;0.60;;;9.40;58.40;;;9.16;41.57;93463.88;5115199;28;20178;-19
2023/03/08 08:36:19;;;;;;;0.70;0.70;;;9.50;58.10;;;9.21;41.42;93461.41;5114133;27;20694;-20
2023/03/08 08:38:46;;;;;;;0.70;0.70;;;9.60;58.00;;;9.28;41.42;93456.91;5115271;28;20277;-19
2023/03/08 08:41:16;;;;;;;0.70;0.70;;;9.80;58.10;;;9.42;41.41;93452.28;5115039;28;20640;-21
2023/03/08 08:43:45;;;;;;;0.80;0.80;;;9.90;59.20;;;9.55;40.89;93467.81;5119695;27;20186;-19
2023/03/08 08:46:14;;;;;;;0.70;0.70;;;10.00;55.80;;;9.68;41.21;93461.63;5119091;28;20213;-19
2023/03/08 08:48:42;;;;;;;0.60;0.60;;;10.10;56.10;;;9.80;40.11;93447.78;5118844;28;20185;-19
2023/03/08 08:51:12;;;;;;;0.70;0.70;;;10.20;55.10;;;9.87;39.73;93451.09;5118072;28;20635;-19
2023/03/08 08:53:39;;;;;;;0.60;0.60;;;10.40;54.50;;;9.91;39.12;93449.63;5118898;28;20201;-19
2023/03/08 08:56:14;;;;;;;0.60;0.60;;;10.40;54.50;;;9.94;39.69;93438.72;5118757;28;20193;-19
2023/03/08 08:59:00;;;;;;;0.70;0.70;;;10.50;54.60;;;10.00;39.38;93450.13;5135129;27;20185;-26
2023/03/08 09:01:32;;;;;;;0.80;0.80;;;10.50;54.60;;;10.07;39.66;93451.59;5119274;28;20192;-19
2023/03/08 09:03:59;;;;;;;0.70;0.70;;;10.60;54.70;;;10.18;39.56;93452.66;5118800;28;20220;-23
2023/03/08 09:06:28;;;;;;;0.70;0.70;;;10.70;54.80;;;10.24;39.28;93448.31;5118860;28;20227;-18
2023/03/08 09:08:57;;;;;;;0.60;0.60;;;10.70;54.40;;;10.23;39.32;93444.91;5118758;28;20210;-20
2023/03/08 09:11:26;;;;;;;0.60;0.60;;;10.80;54.40;;;10.23;39.09;93452.00;5118948;28;20178;-19
2023/03/08 09:13:54;;;;;;;0.80;0.80;;;10.80;54.10;;;10.27;39.38;93441.84;5118528;28;20190;-36
2023/03/08 09:16:31;;;;;;;0.63;0.63;;;10.80;54.20;;;10.27;39.22;93440.03;5135015;27;20292;-19
2023/03/08 09:19:02;;;;;;;0.80;0.80;;;10.90;54.40;;;10.33;39.36;93441.72;5118475;28;20211;-20
2023/03/08 09:21:31;;;;;;;0.60;0.60;;;10.90;54.50;;;10.38;39.29;93434.00;5119326;28;20200;-19
2023/03/08 09:24:02;;;;;;;0.80;0.80;;;10.90;54.10;;;10.38;38.92;93435.84;5117249;28;20290;-19
2023/03/08 09:26:31;;;;;;;0.60;0.60;;;11.00;53.90;;;10.47;38.91;93439.72;5118649;28;20547;-19
2023/03/08 09:29:03;;;;;;;0.63;0.63;;;11.00;53.90;;;10.45;38.88;93428.69;5118371;28;20194;-20
2023/03/08 09:31:33;;;;;;;0.60;0.60;;;11.10;54.00;;;10.48;38.95;93422.97;5118540;28;20280;-19
2023/03/08 09:34:03;;;;;;;0.70;0.70;;;11.10;53.80;;;10.55;39.08;93417.63;5117497;28;20204;-19
2023/03/08 09:36:30;;;;;;;0.70;0.70;;;11.10;54.00;;;10.66;38.16;93419.44;5117910;27;20202;-19
2023/03/08 09:38:57;;;;;;;0.60;0.60;;;11.20;53.30;;;10.67;38.63;93420.25;5117920;28;20254;-19
2023/03/08 09:41:48;;;;;;;0.60;0.60;;;11.20;53.60;;;10.68;38.37;93416.56;5118218;28;20197;-19
2023/03/08 09:44:53;;;;;;;0.70;0.70;;;11.20;53.40;;;10.64;38.40;93413.59;5118208;28;20586;-20
2023/03/08 09:47:54;;;;;;;0.60;0.60;;;11.30;53.20;;;10.59;38.04;93403.00;5117874;28;20212;-19
2023/03/08 09:50:46;;;;;;;0.60;0.60;;;11.20;52.60;;;10.61;37.61;93415.88;5117953;28;20635;-19
2023/03/08 09:53:33;;;;;;;0.60;0.60;;;11.20;52.60;;;10.56;38.11;93419.22;5116003;28;20177;-20
2023/03/08 09:56:27;;;;;;;0.60;0.60;;;11.20;52.70;;;10.59;38.69;93410.09;5117187;28;20231;-20
2023/03/08 09:59:15;;;;;;;0.63;0.63;;;11.20;53.10;;;10.67;38.38;93399.28;5114540;28;20611;-20
2023/03/08 10:02:22;;;;;;;0.55;0.55;;;11.30;53.20;;;10.69;38.42;93402.44;5117497;28;20640;-19
2023/03/08 10:05:14;;;;;;;0.60;0.60;;;11.30;53.10;;;10.66;38.15;93403.69;5116787;28;20265;-19
2023/03/08 10:08:07;;;;;;;0.70;0.70;;;11.30;52.90;;;10.72;38.18;93376.56;5116561;28;20217;-19
2023/03/08 10:10:55;;;;;;;0.60;0.60;;;11.40;53.00;;;10.80;38.55;93383.28;5114446;28;20274;-19
2023/03/08 10:13:31;;;;;;;0.60;0.60;;;11.40;53.00;;;10.87;38.59;93378.69;5118017;28;20272;-20
2023/03/08 10:16:27;;;;;;;0.63;0.63;;;11.50;53.10;;;10.94;38.40;93370.72;5117270;28;20178;-19
2023/03/08 10:19:03;;;;;;;0.60;0.60;;;11.60;53.10;;;10.98;37.80;93368.41;5117376;27;20192;-20
2023/03/08 10:21:32;;;;;;;0.68;0.68;;;11.70;52.20;;;10.99;37.44;93364.78;5117057;28;20189;-19
2023/03/08 10:24:25;;;;;;;0.60;0.60;;;11.80;51.90;;;10.88;37.05;93359.31;5116879;27;20249;-19
2023/03/08 10:26:59;;;;;;;0.50;0.50;;;11.70;51.40;;;10.88;37.59;93358.53;5116462;28;20223;-19
2023/03/08 10:29:29;;;;;;;0.60;0.60;;;11.70;51.70;;;10.92;37.10;93354.41;5099895;28;20257;-19
2023/03/08 10:31:56;;;;;;;0.60;0.60;;;11.70;51.40;;;10.85;37.34;93338.81;5116987;28;20190;-19
2023/03/08 10:34:30;;;;;;;0.65;0.65;;;11.70;51.60;;;10.84;37.02;93346.88;5116976;28;20222;-19
2023/03/08 10:37:05;;;;;;;0.70;0.70;;;11.60;51.20;;;10.81;37.36;93342.91;5133110;27;20184;-19
2023/03/08 10:39:51;;;;;;;0.70;0.70;;;11.60;51.40;;;10.73;37.64;93335.41;5117767;28;20197;-19
2023/03/08 10:42:22;;;;;;;0.60;0.60;;;11.60;51.60;;;10.72;37.39;93324.09;5116960;28;20188;-19
2023/03/08 10:44:56;;;;;;;0.70;0.70;;;11.50;51.50;;;10.73;37.27;93319.69;5116506;28;20181;-19
2023/03/08 10:47:29;;;;;;;0.70;0.70;;;11.50;51.40;;;10.73;38.02;93304.72;5116245;28;20208;-19